createdAt,value
2023-04-21T00:03:42.591Z,42.40
2023-04-21T00:08:48.220Z,42.77
2023-04-21T00:13:53.684Z,43.17
2023-04-21T00:18:59.834Z,44.12
2023-04-21T00:24:05.139Z,42.56
2023-04-21T00:29:10.657Z,42.56
2023-04-21T00:34:16.008Z,41.67
2023-04-21T00:39:21.819Z,43.06
2023-04-21T00:44:27.828Z,43.82
2023-04-21T00:49:33.779Z,42.76
2023-04-21T00:54:40.477Z,43.14
2023-04-21T00:59:46.200Z,42.29
2023-04-21T01:04:51.816Z,42.12
2023-04-21T01:09:57.205Z,42.35
2023-04-21T01:15:02.709Z,41.86
2023-04-21T01:20:12.859Z,41.24
2023-04-21T01:25:19.490Z,41.20
2023-04-21T01:30:25.837Z,41.55
2023-04-21T01:35:31.730Z,41.40
2023-04-21T01:40:37.984Z,40.98
2023-04-21T01:45:43.545Z,40.90
2023-04-21T01:50:48.912Z,40.79
2023-04-21T01:55:54.456Z,39.79
2023-04-21T02:01:00.230Z,39.74
2023-04-21T02:06:06.681Z,39.45
2023-04-21T02:11:11.919Z,39.76
2023-04-21T02:16:21.311Z,39.22
2023-04-21T02:21:28.175Z,39.51
2023-04-21T02:26:35.512Z,39.43
2023-04-21T02:31:57.306Z,40.21
2023-04-21T02:37:09.139Z,38.83
2023-04-21T02:42:14.774Z,38.01
2023-04-21T02:47:20.477Z,38.04
2023-04-21T02:52:25.955Z,37.75
2023-04-21T02:57:31.584Z,36.98
2023-04-21T03:02:39.030Z,36.45
2023-04-21T03:07:46.507Z,37.10
2023-04-21T03:12:51.670Z,35.88
2023-04-21T03:17:57.283Z,35.75
2023-04-21T03:23:04.651Z,34.68
2023-04-21T03:28:10.146Z,35.28
2023-04-21T03:33:15.624Z,35.44
2023-04-21T03:38:20.787Z,35.21
2023-04-21T03:43:26.141Z,35.24
2023-04-21T03:48:32.585Z,35.16
2023-04-21T03:53:38.105Z,35.75
2023-04-21T03:58:43.544Z,36.27
2023-04-21T04:03:49.458Z,36.50
2023-04-21T04:08:53.778Z,37.47
2023-04-21T04:13:57.852Z,38.21
2023-04-21T04:19:03.271Z,37.53
2023-04-21T04:24:09.572Z,37.87
2023-04-21T04:29:16.956Z,37.69
2023-04-21T04:34:23.964Z,37.21
2023-04-21T04:39:28.247Z,38.29
2023-04-21T04:44:32.546Z,37.75
2023-04-21T04:49:36.937Z,38.96
2023-04-21T04:54:41.168Z,38.67
2023-04-21T04:59:45.408Z,37.58
2023-04-21T05:04:49.864Z,37.44
2023-04-21T05:09:54.971Z,37.65
2023-04-21T05:14:59.321Z,37.88
2023-04-21T05:20:08.290Z,36.90
2023-04-21T05:25:16.566Z,37.19
2023-04-21T05:30:20.802Z,37.05
2023-04-21T05:35:24.940Z,36.96
2023-04-21T05:40:29.164Z,37.88
2023-04-21T05:45:34.416Z,37.57
2023-04-21T05:50:38.652Z,36.94
2023-04-21T05:55:42.668Z,36.44
2023-04-21T06:00:48.622Z,35.49
2023-04-21T06:05:57.256Z,36.43
2023-04-21T06:11:01.383Z,37.29
2023-04-21T06:16:06.148Z,36.49
2023-04-21T06:21:11.290Z,37.71
2023-04-21T06:26:18.384Z,38.23
2023-04-21T06:31:22.502Z,38.18
2023-04-21T06:36:28.039Z,37.49
2023-04-21T06:41:32.108Z,37.70
2023-04-21T06:46:36.444Z,38.01
2023-04-21T06:51:40.637Z,37.86
2023-04-21T06:56:44.994Z,37.82
2023-04-21T07:01:52.657Z,37.41
2023-04-21T07:06:57.473Z,36.76
2023-04-21T07:12:01.824Z,36.52
2023-04-21T07:17:06.095Z,36.34
2023-04-21T07:22:10.474Z,36.35
2023-04-21T07:27:14.629Z,36.26
2023-04-21T07:32:18.749Z,36.78
2023-04-21T07:37:23.989Z,36.65
2023-04-21T07:42:29.208Z,35.70
2023-04-21T07:47:34.672Z,36.54
2023-04-21T07:52:38.803Z,37.22
2023-04-21T07:57:42.896Z,36.05
2023-04-21T08:02:47.120Z,36.44
2023-04-21T08:07:51.427Z,36.87
2023-04-21T08:12:55.531Z,36.94
2023-04-21T08:17:59.659Z,35.46
2023-04-21T08:23:04.154Z,36.44
2023-04-21T08:28:08.440Z,35.15
2023-04-21T08:33:14.393Z,36.10
2023-04-21T08:38:19.398Z,34.63
2023-04-21T08:43:25.172Z,35.63
2023-04-21T08:48:31.958Z,35.24
2023-04-21T08:53:37.137Z,34.99
2023-04-21T08:58:42.250Z,34.74
2023-04-21T09:03:47.219Z,35.10
2023-04-21T09:08:56.832Z,35.04
2023-04-21T09:14:01.509Z,34.36
2023-04-21T09:19:18.532Z,35.08
2023-04-21T09:24:22.988Z,35.26
2023-04-21T09:29:28.484Z,34.61
2023-04-21T09:34:34.869Z,34.77
2023-04-21T09:39:52.733Z,34.15
2023-04-21T09:45:25.464Z,34.51
2023-04-21T09:51:07.178Z,34.46
2023-04-21T09:55:53.986Z,34.86
2023-04-21T10:00:58.420Z,34.94
2023-04-21T10:06:02.945Z,36.31
2023-04-21T10:11:08.675Z,37.07
2023-04-21T10:16:12.717Z,36.90
2023-04-21T10:21:22.491Z,36.18
2023-04-21T10:26:33.769Z,37.12
2023-04-21T10:31:54.858Z,37.58
2023-04-21T10:36:59.043Z,37.37
2023-04-21T10:42:27.836Z,38.12
2023-04-21T10:47:35.774Z,39.23
2023-04-21T10:52:40.237Z,40.03
2023-04-21T10:57:46.052Z,39.27
2023-04-21T11:02:58.863Z,39.03
2023-04-21T11:08:14.546Z,38.99
2023-04-21T11:13:25.361Z,38.17
2023-04-21T11:18:43.553Z,38.01
2023-04-21T11:23:57.897Z,37.28
2023-04-21T11:29:09.948Z,36.98
2023-04-21T11:34:17.572Z,37.07
2023-04-21T11:39:22.408Z,35.46
2023-04-21T11:44:41.459Z,36.17
2023-04-21T11:50:10.257Z,35.07
2023-04-21T11:55:19.259Z,36.13
2023-04-21T12:00:24.684Z,36.31
2023-04-21T12:05:36.845Z,35.92
2023-04-21T12:10:46.274Z,37.53
2023-04-21T12:15:51.410Z,36.73
2023-04-21T12:20:55.754Z,37.77
2023-04-21T12:26:01.971Z,38.69
2023-04-21T12:31:07.101Z,39.15
2023-04-21T12:36:11.784Z,39.88
2023-04-21T12:41:16.061Z,39.67
2023-04-21T12:46:20.413Z,39.85
2023-04-21T12:51:24.747Z,40.19
2023-04-21T12:56:29.073Z,40.05
2023-04-21T13:01:33.702Z,39.90
2023-04-21T13:06:39.750Z,39.98
2023-04-21T13:11:43.809Z,39.46
2023-04-21T13:16:48.098Z,39.52
2023-04-21T13:21:54.391Z,39.07
2023-04-21T13:26:59.240Z,39.02
2023-04-21T13:32:04.700Z,39.40
2023-04-21T13:37:18.091Z,39.96
2023-04-21T13:42:22.324Z,40.45
2023-04-21T13:47:27.215Z,39.85
2023-04-21T13:52:31.874Z,40.27
2023-04-21T13:57:36.955Z,40.82
2023-04-21T14:02:43.033Z,40.68
2023-04-21T14:07:48.738Z,40.67
2023-04-21T14:12:53.987Z,39.80
2023-04-21T14:17:58.425Z,39.31
2023-04-21T14:23:04.163Z,39.33
2023-04-21T14:28:09.848Z,39.13
2023-04-21T14:33:14.882Z,39.41
2023-04-21T14:38:20.181Z,39.56
2023-04-21T14:43:24.427Z,39.26
2023-04-21T14:48:29.619Z,39.51
2023-04-21T14:53:36.183Z,39.61
2023-04-21T14:58:41.270Z,40.07
2023-04-21T15:03:45.493Z,40.41
2023-04-21T15:08:51.371Z,40.35
2023-04-21T15:13:56.728Z,40.09
2023-04-21T15:19:02.200Z,40.47
2023-04-21T15:24:07.958Z,40.34
2023-04-21T15:29:13.482Z,40.32
2023-04-21T15:34:18.868Z,40.72
2023-04-21T15:39:24.444Z,40.10
2023-04-21T15:44:29.947Z,40.70
2023-04-21T15:49:35.769Z,39.65
2023-04-21T15:54:42.558Z,40.38
2023-04-21T15:59:48.233Z,39.81
2023-04-21T16:04:54.308Z,39.86
2023-04-21T16:10:00.130Z,40.01
2023-04-21T16:15:23.101Z,40.39
2023-04-21T16:20:32.058Z,40.05
2023-04-21T16:25:38.367Z,40.68
2023-04-21T16:30:44.160Z,41.04
2023-04-21T16:35:49.770Z,41.33
2023-04-21T16:40:55.433Z,41.72
2023-04-21T16:46:01.112Z,41.73
2023-04-21T16:51:07.010Z,41.48
2023-04-21T16:56:12.674Z,41.72
2023-04-21T17:01:18.572Z,42.54
2023-04-21T17:06:23.679Z,41.68
2023-04-21T17:11:30.491Z,42.08
2023-04-21T17:16:35.914Z,42.42
2023-04-21T17:21:41.784Z,42.36
2023-04-21T17:26:47.919Z,43.06
2023-04-21T17:31:53.481Z,43.67
2023-04-21T17:36:59.175Z,43.75
2023-04-21T17:42:05.650Z,44.53
2023-04-21T17:47:11.363Z,44.58
2023-04-21T17:52:17.483Z,45.62
2023-04-21T17:57:24.525Z,45.68
2023-04-21T18:02:30.504Z,46.34
2023-04-21T18:07:36.749Z,46.19
2023-04-21T18:12:42.594Z,46.90
2023-04-21T18:17:48.243Z,46.54
2023-04-21T18:22:54.397Z,47.06
2023-04-21T18:27:59.852Z,46.93
2023-04-21T18:33:05.871Z,47.34
2023-04-21T18:38:13.650Z,47.50
2023-04-21T18:43:19.487Z,47.97
2023-04-21T18:48:24.979Z,48.10
2023-04-21T18:53:30.600Z,48.43
2023-04-21T18:58:36.179Z,48.72
2023-04-21T19:03:41.973Z,48.96
2023-04-21T19:08:47.725Z,49.45
2023-04-21T19:13:53.302Z,49.55
2023-04-21T19:18:59.023Z,50.10
2023-04-21T19:24:04.383Z,50.65
2023-04-21T19:29:12.430Z,51.10
2023-04-21T19:34:18.175Z,51.16
2023-04-21T19:39:23.803Z,51.28
2023-04-21T19:44:29.272Z,51.01
2023-04-21T19:49:35.107Z,51.98
2023-04-21T19:54:40.744Z,51.83
2023-04-21T19:59:46.375Z,52.38
2023-04-21T20:04:52.045Z,52.88
2023-04-21T20:09:57.957Z,52.57
2023-04-21T20:15:04.050Z,52.94
2023-04-21T20:20:11.348Z,53.48
2023-04-21T20:25:17.078Z,53.47
2023-04-21T20:30:22.725Z,54.09
2023-04-21T20:35:31.106Z,54.57
2023-04-21T20:40:36.771Z,55.92
2023-04-21T20:45:42.598Z,56.21
2023-04-21T20:50:50.637Z,56.84
2023-04-21T20:56:00.533Z,57.57
2023-04-21T21:01:06.149Z,58.07
2023-04-21T21:06:11.779Z,57.64
2023-04-21T21:11:17.328Z,57.67
2023-04-21T21:16:23.055Z,57.99
2023-04-21T21:21:28.780Z,58.99
2023-04-21T21:26:35.043Z,58.51
2023-04-21T21:31:40.470Z,58.96
2023-04-21T21:36:45.959Z,59.63
2023-04-21T21:41:51.465Z,59.84
2023-04-21T21:46:56.901Z,60.29
2023-04-21T21:52:03.164Z,60.77
2023-04-21T21:57:08.498Z,60.71
2023-04-21T22:02:14.074Z,60.66
2023-04-21T22:07:19.973Z,60.37
2023-04-21T22:12:26.441Z,61.12
2023-04-21T22:17:35.426Z,60.88
2023-04-21T22:22:41.021Z,60.93
2023-04-21T22:27:46.389Z,60.92
2023-04-21T22:32:51.946Z,61.05
2023-04-21T22:37:57.445Z,60.31
2023-04-21T22:43:03.260Z,60.61
2023-04-21T22:48:09.953Z,60.19
2023-04-21T22:53:15.427Z,61.50
2023-04-21T22:58:22.138Z,62.21
2023-04-21T23:03:27.930Z,61.32
2023-04-21T23:08:33.684Z,61.79
2023-04-21T23:13:40.478Z,62.05
2023-04-21T23:18:46.423Z,61.88
2023-04-21T23:23:52.034Z,62.48
2023-04-21T23:28:57.572Z,62.41
2023-04-21T23:34:02.738Z,63.80
2023-04-21T23:39:08.424Z,63.43
2023-04-21T23:44:14.119Z,65.11
2023-04-21T23:49:19.346Z,64.77
2023-04-21T23:54:25.303Z,64.77
2023-04-21T23:59:31.111Z,65.95
